sensor_id;sensor_type;location;lat;lon;timestamp;temperature;humidity
5940;DHT22;2995;-31.998;115.906;2023-07-13T00:00:39;16.40;99.90
5940;DHT22;2995;-31.998;115.906;2023-07-13T00:03:12;16.30;99.90
5940;DHT22;2995;-31.998;115.906;2023-07-13T00:05:46;16.40;99.90
5940;DHT22;2995;-31.998;115.906;2023-07-13T00:08:19;16.30;99.90
5940;DHT22;2995;-31.998;115.906;2023-07-13T00:10:53;16.40;99.90
5940;DHT22;2995;-31.998;115.906;2023-07-13T00:13:24;16.40;99.90
5940;DHT22;2995;-31.998;115.906;2023-07-13T00:15:56;16.40;99.90
5940;DHT22;2995;-31.998;115.906;2023-07-13T00:18:29;16.40;99.90
5940;DHT22;2995;-31.998;115.906;2023-07-13T00:21:00;16.60;99.90
5940;DHT22;2995;-31.998;115.906;2023-07-13T00:23:36;16.50;99.90
5940;DHT22;2995;-31.998;115.906;2023-07-13T00:26:12;16.50;99.90
5940;DHT22;2995;-31.998;115.906;2023-07-13T00:28:43;16.50;99.90
5940;DHT22;2995;-31.998;115.906;2023-07-13T00:31:15;16.60;99.90
5940;DHT22;2995;-31.998;115.906;2023-07-13T00:33:46;16.70;99.90
5940;DHT22;2995;-31.998;115.906;2023-07-13T00:36:20;16.70;99.90
5940;DHT22;2995;-31.998;115.906;2023-07-13T00:38:52;16.70;99.90
5940;DHT22;2995;-31.998;115.906;2023-07-13T00:41:26;16.70;99.90
5940;DHT22;2995;-31.998;115.906;2023-07-13T00:43:58;16.80;99.90
5940;DHT22;2995;-31.998;115.906;2023-07-13T00:46:32;16.70;99.90
5940;DHT22;2995;-31.998;115.906;2023-07-13T00:49:07;16.70;99.90
5940;DHT22;2995;-31.998;115.906;2023-07-13T00:51:40;16.60;99.90
5940;DHT22;2995;-31.998;115.906;2023-07-13T00:54:15;16.60;99.90
5940;DHT22;2995;-31.998;115.906;2023-07-13T00:56:53;16.60;99.90
5940;DHT22;2995;-31.998;115.906;2023-07-13T00:59:26;16.80;99.90
5940;DHT22;2995;-31.998;115.906;2023-07-13T01:01:58;16.70;99.90
5940;DHT22;2995;-31.998;115.906;2023-07-13T01:04:29;16.90;99.90
5940;DHT22;2995;-31.998;115.906;2023-07-13T01:07:01;16.80;99.90
5940;DHT22;2995;-31.998;115.906;2023-07-13T01:09:32;16.80;99.90
5940;DHT22;2995;-31.998;115.906;2023-07-13T01:12:07;16.90;99.90
5940;DHT22;2995;-31.998;115.906;2023-07-13T01:14:39;16.90;99.90
5940;DHT22;2995;-31.998;115.906;2023-07-13T01:17:12;17.00;99.90
5940;DHT22;2995;-31.998;115.906;2023-07-13T01:19:44;17.00;99.90
5940;DHT22;2995;-31.998;115.906;2023-07-13T01:22:19;16.80;99.90
5940;DHT22;2995;-31.998;115.906;2023-07-13T01:24:53;16.80;99.90
5940;DHT22;2995;-31.998;115.906;2023-07-13T01:27:26;16.70;99.90
5940;DHT22;2995;-31.998;115.906;2023-07-13T01:29:58;16.70;99.90
5940;DHT22;2995;-31.998;115.906;2023-07-13T01:32:32;16.70;99.90
5940;DHT22;2995;-31.998;115.906;2023-07-13T01:35:04;16.50;99.90
5940;DHT22;2995;-31.998;115.906;2023-07-13T01:37:38;16.40;99.90
5940;DHT22;2995;-31.998;115.906;2023-07-13T01:40:11;16.30;99.90
5940;DHT22;2995;-31.998;115.906;2023-07-13T01:42:43;16.10;99.90
5940;DHT22;2995;-31.998;115.906;2023-07-13T01:45:14;16.10;99.90
5940;DHT22;2995;-31.998;115.906;2023-07-13T01:47:46;16.10;99.90
5940;DHT22;2995;-31.998;115.906;2023-07-13T01:50:17;16.20;99.90
5940;DHT22;2995;-31.998;115.906;2023-07-13T01:52:51;16.10;99.90
5940;DHT22;2995;-31.998;115.906;2023-07-13T01:55:23;16.30;99.90
5940;DHT22;2995;-31.998;115.906;2023-07-13T01:57:54;16.40;99.90
5940;DHT22;2995;-31.998;115.906;2023-07-13T02:00:26;16.50;99.90
5940;DHT22;2995;-31.998;115.906;2023-07-13T02:03:00;16.40;99.90
5940;DHT22;2995;-31.998;115.906;2023-07-13T02:05:31;16.50;99.90
5940;DHT22;2995;-31.998;115.906;2023-07-13T02:08:04;16.60;99.90
5940;DHT22;2995;-31.998;115.906;2023-07-13T02:10:36;16.60;99.90
5940;DHT22;2995;-31.998;115.906;2023-07-13T02:13:08;16.60;99.90
5940;DHT22;2995;-31.998;115.906;2023-07-13T02:15:40;16.80;99.90
5940;DHT22;2995;-31.998;115.906;2023-07-13T02:18:12;16.80;99.90
5940;DHT22;2995;-31.998;115.906;2023-07-13T02:20:45;16.90;99.90
5940;DHT22;2995;-31.998;115.906;2023-07-13T02:23:18;16.90;99.90
5940;DHT22;2995;-31.998;115.906;2023-07-13T02:25:52;17.00;99.90
5940;DHT22;2995;-31.998;115.906;2023-07-13T02:28:25;17.10;99.90
5940;DHT22;2995;-31.998;115.906;2023-07-13T02:31:03;17.20;99.90
5940;DHT22;2995;-31.998;115.906;2023-07-13T02:33:34;17.30;99.90
5940;DHT22;2995;-31.998;115.906;2023-07-13T02:36:06;17.30;99.90
5940;DHT22;2995;-31.998;115.906;2023-07-13T02:38:39;17.40;99.90
5940;DHT22;2995;-31.998;115.906;2023-07-13T02:41:11;17.50;99.90
5940;DHT22;2995;-31.998;115.906;2023-07-13T02:43:42;17.60;99.90
5940;DHT22;2995;-31.998;115.906;2023-07-13T02:46:14;17.50;99.90
5940;DHT22;2995;-31.998;115.906;2023-07-13T02:48:45;17.50;99.90
5940;DHT22;2995;-31.998;115.906;2023-07-13T02:51:17;17.50;99.90
5940;DHT22;2995;-31.998;115.906;2023-07-13T02:53:51;17.40;99.90
5940;DHT22;2995;-31.998;115.906;2023-07-13T02:56:24;17.40;99.90
5940;DHT22;2995;-31.998;115.906;2023-07-13T02:58:56;17.40;99.90
5940;DHT22;2995;-31.998;115.906;2023-07-13T03:01:28;17.60;99.90
5940;DHT22;2995;-31.998;115.906;2023-07-13T03:04:00;17.60;99.90
5940;DHT22;2995;-31.998;115.906;2023-07-13T03:06:32;17.60;99.90
5940;DHT22;2995;-31.998;115.906;2023-07-13T03:09:06;17.60;99.90
5940;DHT22;2995;-31.998;115.906;2023-07-13T03:11:38;17.60;99.90
5940;DHT22;2995;-31.998;115.906;2023-07-13T03:14:13;17.60;99.90
5940;DHT22;2995;-31.998;115.906;2023-07-13T03:16:44;17.70;99.90
5940;DHT22;2995;-31.998;115.906;2023-07-13T03:19:16;17.70;99.90
5940;DHT22;2995;-31.998;115.906;2023-07-13T03:21:48;17.90;99.90
5940;DHT22;2995;-31.998;115.906;2023-07-13T03:24:21;17.90;99.90
5940;DHT22;2995;-31.998;115.906;2023-07-13T03:26:54;17.80;99.90
5940;DHT22;2995;-31.998;115.906;2023-07-13T03:29:25;18.00;99.90
5940;DHT22;2995;-31.998;115.906;2023-07-13T03:31:57;18.10;99.90
5940;DHT22;2995;-31.998;115.906;2023-07-13T03:34:29;18.10;99.90
5940;DHT22;2995;-31.998;115.906;2023-07-13T03:37:00;18.00;99.90
5940;DHT22;2995;-31.998;115.906;2023-07-13T03:39:34;18.10;99.90
5940;DHT22;2995;-31.998;115.906;2023-07-13T03:42:06;18.00;99.90
5940;DHT22;2995;-31.998;115.906;2023-07-13T03:44:38;18.10;99.90
5940;DHT22;2995;-31.998;115.906;2023-07-13T03:47:10;18.10;99.90
5940;DHT22;2995;-31.998;115.906;2023-07-13T03:49:41;18.20;99.90
5940;DHT22;2995;-31.998;115.906;2023-07-13T05:11:03;18.90;99.90
5940;DHT22;2995;-31.998;115.906;2023-07-13T05:13:36;18.70;99.90
5940;DHT22;2995;-31.998;115.906;2023-07-13T05:16:07;18.70;99.90
5940;DHT22;2995;-31.998;115.906;2023-07-13T05:18:40;18.70;99.90
5940;DHT22;2995;-31.998;115.906;2023-07-13T05:21:12;18.70;99.90
5940;DHT22;2995;-31.998;115.906;2023-07-13T05:23:43;18.80;99.90
5940;DHT22;2995;-31.998;115.906;2023-07-13T05:26:17;18.80;99.90
5940;DHT22;2995;-31.998;115.906;2023-07-13T05:28:49;18.70;99.90
5940;DHT22;2995;-31.998;115.906;2023-07-13T05:31:20;18.80;99.90
5940;DHT22;2995;-31.998;115.906;2023-07-13T05:33:52;18.70;99.90
5940;DHT22;2995;-31.998;115.906;2023-07-13T05:36:23;18.70;99.90
5940;DHT22;2995;-31.998;115.906;2023-07-13T05:38:55;18.80;99.90
5940;DHT22;2995;-31.998;115.906;2023-07-13T05:41:28;18.90;99.90
5940;DHT22;2995;-31.998;115.906;2023-07-13T05:44:00;18.90;99.90
5940;DHT22;2995;-31.998;115.906;2023-07-13T05:46:32;18.90;99.90
5940;DHT22;2995;-31.998;115.906;2023-07-13T05:49:03;19.00;99.90
5940;DHT22;2995;-31.998;115.906;2023-07-13T05:51:34;19.00;99.90
5940;DHT22;2995;-31.998;115.906;2023-07-13T05:54:06;19.00;99.90
5940;DHT22;2995;-31.998;115.906;2023-07-13T05:56:39;19.00;99.90
5940;DHT22;2995;-31.998;115.906;2023-07-13T05:59:10;18.90;99.90
5940;DHT22;2995;-31.998;115.906;2023-07-13T06:01:42;18.90;99.90
5940;DHT22;2995;-31.998;115.906;2023-07-13T06:04:13;19.00;99.90
5940;DHT22;2995;-31.998;115.906;2023-07-13T06:06:44;19.10;99.90
5940;DHT22;2995;-31.998;115.906;2023-07-13T06:09:16;18.90;99.90
5940;DHT22;2995;-31.998;115.906;2023-07-13T06:11:49;18.70;99.90
5940;DHT22;2995;-31.998;115.906;2023-07-13T06:14:20;18.80;99.90
5940;DHT22;2995;-31.998;115.906;2023-07-13T06:16:51;18.90;99.90
5940;DHT22;2995;-31.998;115.906;2023-07-13T06:19:22;18.80;99.90
5940;DHT22;2995;-31.998;115.906;2023-07-13T06:21:54;18.80;99.90
5940;DHT22;2995;-31.998;115.906;2023-07-13T06:24:26;18.80;99.90
5940;DHT22;2995;-31.998;115.906;2023-07-13T06:26:59;18.80;99.90
5940;DHT22;2995;-31.998;115.906;2023-07-13T06:29:30;18.70;99.90
5940;DHT22;2995;-31.998;115.906;2023-07-13T06:32:02;18.90;99.90
5940;DHT22;2995;-31.998;115.906;2023-07-13T06:34:33;18.80;99.90
5940;DHT22;2995;-31.998;115.906;2023-07-13T06:37:04;18.80;99.90
5940;DHT22;2995;-31.998;115.906;2023-07-13T06:39:36;18.60;99.90
5940;DHT22;2995;-31.998;115.906;2023-07-13T06:42:09;18.60;99.90
5940;DHT22;2995;-31.998;115.906;2023-07-13T06:44:41;18.70;99.90
5940;DHT22;2995;-31.998;115.906;2023-07-13T06:47:12;18.60;99.90
5940;DHT22;2995;-31.998;115.906;2023-07-13T06:49:43;18.60;99.90
5940;DHT22;2995;-31.998;115.906;2023-07-13T06:52:14;18.60;99.90
5940;DHT22;2995;-31.998;115.906;2023-07-13T06:54:46;18.60;99.90
5940;DHT22;2995;-31.998;115.906;2023-07-13T06:57:19;18.70;99.90
5940;DHT22;2995;-31.998;115.906;2023-07-13T06:59:50;18.60;99.90
5940;DHT22;2995;-31.998;115.906;2023-07-13T07:02:21;18.60;99.90
5940;DHT22;2995;-31.998;115.906;2023-07-13T07:04:53;18.50;99.90
5940;DHT22;2995;-31.998;115.906;2023-07-13T07:07:25;18.50;99.90
5940;DHT22;2995;-31.998;115.906;2023-07-13T07:09:56;18.40;99.90
5940;DHT22;2995;-31.998;115.906;2023-07-13T07:12:30;18.40;99.90
5940;DHT22;2995;-31.998;115.906;2023-07-13T07:15:01;18.50;99.90
5940;DHT22;2995;-31.998;115.906;2023-07-13T07:17:33;18.40;99.90
5940;DHT22;2995;-31.998;115.906;2023-07-13T07:20:05;18.50;99.90
5940;DHT22;2995;-31.998;115.906;2023-07-13T07:22:36;18.70;99.90
5940;DHT22;2995;-31.998;115.906;2023-07-13T07:25:08;18.60;99.90
5940;DHT22;2995;-31.998;115.906;2023-07-13T07:27:41;18.50;99.90
5940;DHT22;2995;-31.998;115.906;2023-07-13T07:30:13;18.50;99.90
5940;DHT22;2995;-31.998;115.906;2023-07-13T07:32:44;18.40;99.90
5940;DHT22;2995;-31.998;115.906;2023-07-13T07:35:15;18.30;99.90
5940;DHT22;2995;-31.998;115.906;2023-07-13T07:37:47;18.30;99.90
5940;DHT22;2995;-31.998;115.906;2023-07-13T07:40:18;18.20;99.90
5940;DHT22;2995;-31.998;115.906;2023-07-13T07:42:51;18.10;99.90
5940;DHT22;2995;-31.998;115.906;2023-07-13T07:45:23;18.20;99.90
5940;DHT22;2995;-31.998;115.906;2023-07-13T07:47:54;18.10;99.90
5940;DHT22;2995;-31.998;115.906;2023-07-13T07:50:27;18.10;99.90
5940;DHT22;2995;-31.998;115.906;2023-07-13T07:52:58;18.00;99.90
5940;DHT22;2995;-31.998;115.906;2023-07-13T07:55:30;18.10;99.90
5940;DHT22;2995;-31.998;115.906;2023-07-13T07:58:06;18.10;99.90
5940;DHT22;2995;-31.998;115.906;2023-07-13T08:00:37;18.20;99.90
5940;DHT22;2995;-31.998;115.906;2023-07-13T08:03:08;18.20;99.90
5940;DHT22;2995;-31.998;115.906;2023-07-13T08:05:40;18.10;99.90
5940;DHT22;2995;-31.998;115.906;2023-07-13T08:08:11;18.00;99.90
5940;DHT22;2995;-31.998;115.906;2023-07-13T08:10:42;18.00;99.90
5940;DHT22;2995;-31.998;115.906;2023-07-13T08:13:15;17.90;99.90
5940;DHT22;2995;-31.998;115.906;2023-07-13T08:15:47;17.90;99.90
5940;DHT22;2995;-31.998;115.906;2023-07-13T08:18:18;17.90;99.90
5940;DHT22;2995;-31.998;115.906;2023-07-13T08:20:49;17.80;99.90
5940;DHT22;2995;-31.998;115.906;2023-07-13T08:23:21;17.70;99.90
5940;DHT22;2995;-31.998;115.906;2023-07-13T08:25:55;17.70;99.90
5940;DHT22;2995;-31.998;115.906;2023-07-13T08:28:31;17.60;99.90
5940;DHT22;2995;-31.998;115.906;2023-07-13T08:31:03;17.60;99.90
5940;DHT22;2995;-31.998;115.906;2023-07-13T08:33:36;17.60;99.90
5940;DHT22;2995;-31.998;115.906;2023-07-13T08:36:08;17.50;99.90
5940;DHT22;2995;-31.998;115.906;2023-07-13T08:38:40;17.60;99.90
5940;DHT22;2995;-31.998;115.906;2023-07-13T08:41:16;17.60;99.90
5940;DHT22;2995;-31.998;115.906;2023-07-13T08:43:51;17.60;99.90
5940;DHT22;2995;-31.998;115.906;2023-07-13T08:46:26;17.40;99.90
5940;DHT22;2995;-31.998;115.906;2023-07-13T08:49:01;17.30;99.90
5940;DHT22;2995;-31.998;115.906;2023-07-13T08:51:40;17.30;99.90
5940;DHT22;2995;-31.998;115.906;2023-07-13T08:54:22;17.30;99.90
5940;DHT22;2995;-31.998;115.906;2023-07-13T08:56:55;17.30;99.90
5940;DHT22;2995;-31.998;115.906;2023-07-13T08:59:30;17.20;99.90
5940;DHT22;2995;-31.998;115.906;2023-07-13T09:02:23;17.20;99.90
5940;DHT22;2995;-31.998;115.906;2023-07-13T09:04:58;17.20;99.90
5940;DHT22;2995;-31.998;115.906;2023-07-13T09:07:44;17.20;99.90
5940;DHT22;2995;-31.998;115.906;2023-07-13T09:10:21;17.10;99.90
5940;DHT22;2995;-31.998;115.906;2023-07-13T09:13:06;17.20;99.90
5940;DHT22;2995;-31.998;115.906;2023-07-13T09:15:44;17.20;99.90
5940;DHT22;2995;-31.998;115.906;2023-07-13T09:18:21;17.10;99.90
5940;DHT22;2995;-31.998;115.906;2023-07-13T09:20:57;17.10;99.90
5940;DHT22;2995;-31.998;115.906;2023-07-13T09:23:30;17.00;99.90
5940;DHT22;2995;-31.998;115.906;2023-07-13T09:26:04;17.00;99.90
5940;DHT22;2995;-31.998;115.906;2023-07-13T09:28:40;17.00;99.90
5940;DHT22;2995;-31.998;115.906;2023-07-13T09:31:16;17.00;99.90
5940;DHT22;2995;-31.998;115.906;2023-07-13T09:33:47;16.90;99.90
5940;DHT22;2995;-31.998;115.906;2023-07-13T09:36:22;17.00;99.90
5940;DHT22;2995;-31.998;115.906;2023-07-13T09:39:00;17.00;99.90
5940;DHT22;2995;-31.998;115.906;2023-07-13T09:41:45;16.90;99.90
5940;DHT22;2995;-31.998;115.906;2023-07-13T09:44:26;16.90;99.90
5940;DHT22;2995;-31.998;115.906;2023-07-13T09:47:01;16.90;99.90
5940;DHT22;2995;-31.998;115.906;2023-07-13T09:49:35;16.80;99.90
5940;DHT22;2995;-31.998;115.906;2023-07-13T09:52:11;16.80;99.90
5940;DHT22;2995;-31.998;115.906;2023-07-13T09:54:48;16.80;99.90
5940;DHT22;2995;-31.998;115.906;2023-07-13T09:57:26;16.90;99.90
5940;DHT22;2995;-31.998;115.906;2023-07-13T09:59:57;16.80;99.90
5940;DHT22;2995;-31.998;115.906;2023-07-13T10:02:32;16.70;99.90
5940;DHT22;2995;-31.998;115.906;2023-07-13T10:05:05;16.70;99.90
5940;DHT22;2995;-31.998;115.906;2023-07-13T10:07:40;16.70;99.90
5940;DHT22;2995;-31.998;115.906;2023-07-13T10:10:16;16.60;99.90
5940;DHT22;2995;-31.998;115.906;2023-07-13T10:12:48;16.60;99.90
5940;DHT22;2995;-31.998;115.906;2023-07-13T10:15:22;16.60;99.90
5940;DHT22;2995;-31.998;115.906;2023-07-13T10:17:56;16.50;99.90
5940;DHT22;2995;-31.998;115.906;2023-07-13T10:20:28;16.50;99.90
5940;DHT22;2995;-31.998;115.906;2023-07-13T10:23:02;16.50;99.90
5940;DHT22;2995;-31.998;115.906;2023-07-13T10:25:36;16.40;99.90
5940;DHT22;2995;-31.998;115.906;2023-07-13T10:28:25;16.40;99.90
5940;DHT22;2995;-31.998;115.906;2023-07-13T10:30:58;16.50;99.90
5940;DHT22;2995;-31.998;115.906;2023-07-13T10:33:32;16.50;99.90
5940;DHT22;2995;-31.998;115.906;2023-07-13T10:36:12;16.40;99.90
5940;DHT22;2995;-31.998;115.906;2023-07-13T10:38:45;16.40;99.90
5940;DHT22;2995;-31.998;115.906;2023-07-13T10:41:20;16.40;99.90
5940;DHT22;2995;-31.998;115.906;2023-07-13T10:43:53;16.30;99.90
5940;DHT22;2995;-31.998;115.906;2023-07-13T10:46:26;16.30;99.90
5940;DHT22;2995;-31.998;115.906;2023-07-13T10:49:03;16.30;99.90
5940;DHT22;2995;-31.998;115.906;2023-07-13T10:51:36;16.20;99.90
5940;DHT22;2995;-31.998;115.906;2023-07-13T10:54:17;16.20;99.90
5940;DHT22;2995;-31.998;115.906;2023-07-13T10:56:53;16.10;99.90
5940;DHT22;2995;-31.998;115.906;2023-07-13T10:59:37;16.00;99.90
5940;DHT22;2995;-31.998;115.906;2023-07-13T11:02:15;16.00;99.90
5940;DHT22;2995;-31.998;115.906;2023-07-13T11:04:50;16.00;99.90
5940;DHT22;2995;-31.998;115.906;2023-07-13T11:07:25;16.00;99.90
5940;DHT22;2995;-31.998;115.906;2023-07-13T11:09:58;15.90;99.90
5940;DHT22;2995;-31.998;115.906;2023-07-13T11:12:50;15.90;99.90
5940;DHT22;2995;-31.998;115.906;2023-07-13T11:15:43;15.80;99.90
5940;DHT22;2995;-31.998;115.906;2023-07-13T11:18:22;15.70;99.90
5940;DHT22;2995;-31.998;115.906;2023-07-13T11:21:13;15.70;99.90
5940;DHT22;2995;-31.998;115.906;2023-07-13T11:23:51;15.70;99.90
5940;DHT22;2995;-31.998;115.906;2023-07-13T11:26:42;15.70;99.90
5940;DHT22;2995;-31.998;115.906;2023-07-13T11:29:31;15.60;99.90
5940;DHT22;2995;-31.998;115.906;2023-07-13T11:32:23;15.60;99.90
5940;DHT22;2995;-31.998;115.906;2023-07-13T11:34:55;15.60;99.90
5940;DHT22;2995;-31.998;115.906;2023-07-13T11:37:30;15.60;99.90
5940;DHT22;2995;-31.998;115.906;2023-07-13T11:40:01;15.60;99.90
5940;DHT22;2995;-31.998;115.906;2023-07-13T11:42:34;15.50;99.90
5940;DHT22;2995;-31.998;115.906;2023-07-13T11:45:20;15.50;99.90
5940;DHT22;2995;-31.998;115.906;2023-07-13T11:47:52;15.60;99.90
5940;DHT22;2995;-31.998;115.906;2023-07-13T11:50:25;15.50;99.90
5940;DHT22;2995;-31.998;115.906;2023-07-13T11:52:59;15.50;99.90
5940;DHT22;2995;-31.998;115.906;2023-07-13T11:55:32;15.50;99.90
5940;DHT22;2995;-31.998;115.906;2023-07-13T11:58:11;15.50;99.90
5940;DHT22;2995;-31.998;115.906;2023-07-13T12:00:42;15.60;99.90
5940;DHT22;2995;-31.998;115.906;2023-07-13T12:03:20;15.50;99.90
5940;DHT22;2995;-31.998;115.906;2023-07-13T12:06:02;15.40;99.90
5940;DHT22;2995;-31.998;115.906;2023-07-13T12:08:39;15.40;99.90
5940;DHT22;2995;-31.998;115.906;2023-07-13T12:11:16;15.40;99.90
5940;DHT22;2995;-31.998;115.906;2023-07-13T12:13:48;15.40;99.90
5940;DHT22;2995;-31.998;115.906;2023-07-13T12:16:31;15.40;99.90
5940;DHT22;2995;-31.998;115.906;2023-07-13T12:19:09;15.40;99.90
5940;DHT22;2995;-31.998;115.906;2023-07-13T12:21:45;15.40;99.90
5940;DHT22;2995;-31.998;115.906;2023-07-13T12:24:20;15.40;99.90
5940;DHT22;2995;-31.998;115.906;2023-07-13T12:26:59;15.40;99.90
5940;DHT22;2995;-31.998;115.906;2023-07-13T12:29:32;15.30;99.90
5940;DHT22;2995;-31.998;115.906;2023-07-13T12:32:13;15.40;99.90
5940;DHT22;2995;-31.998;115.906;2023-07-13T12:34:55;15.40;99.90
5940;DHT22;2995;-31.998;115.906;2023-07-13T12:37:26;15.40;99.90
5940;DHT22;2995;-31.998;115.906;2023-07-13T12:40:01;15.40;99.90
5940;DHT22;2995;-31.998;115.906;2023-07-13T12:42:33;15.30;99.90
5940;DHT22;2995;-31.998;115.906;2023-07-13T12:45:18;15.30;99.90
5940;DHT22;2995;-31.998;115.906;2023-07-13T12:47:53;15.40;99.90
5940;DHT22;2995;-31.998;115.906;2023-07-13T12:50:33;15.30;99.90
5940;DHT22;2995;-31.998;115.906;2023-07-13T12:53:09;15.20;99.90
5940;DHT22;2995;-31.998;115.906;2023-07-13T12:55:47;15.10;99.90
5940;DHT22;2995;-31.998;115.906;2023-07-13T12:58:25;15.10;99.90
5940;DHT22;2995;-31.998;115.906;2023-07-13T13:00:59;15.00;99.90
5940;DHT22;2995;-31.998;115.906;2023-07-13T13:03:34;15.00;99.90
5940;DHT22;2995;-31.998;115.906;2023-07-13T13:06:20;14.90;99.90
5940;DHT22;2995;-31.998;115.906;2023-07-13T13:08:53;14.90;99.90
5940;DHT22;2995;-31.998;115.906;2023-07-13T13:11:33;14.90;99.90
5940;DHT22;2995;-31.998;115.906;2023-07-13T13:14:04;14.80;99.90
5940;DHT22;2995;-31.998;115.906;2023-07-13T13:16:37;14.80;99.90
5940;DHT22;2995;-31.998;115.906;2023-07-13T13:19:16;14.80;99.90
5940;DHT22;2995;-31.998;115.906;2023-07-13T13:21:50;14.80;99.90
5940;DHT22;2995;-31.998;115.906;2023-07-13T13:24:23;14.80;99.90
5940;DHT22;2995;-31.998;115.906;2023-07-13T13:26:57;14.80;99.90
5940;DHT22;2995;-31.998;115.906;2023-07-13T13:29:31;14.80;99.90
5940;DHT22;2995;-31.998;115.906;2023-07-13T13:32:03;14.80;99.90
5940;DHT22;2995;-31.998;115.906;2023-07-13T13:34:34;14.80;99.90
5940;DHT22;2995;-31.998;115.906;2023-07-13T13:37:09;14.80;99.90
5940;DHT22;2995;-31.998;115.906;2023-07-13T13:39:46;14.70;99.90
5940;DHT22;2995;-31.998;115.906;2023-07-13T13:42:19;14.70;99.90
5940;DHT22;2995;-31.998;115.906;2023-07-13T13:44:53;14.70;99.90
5940;DHT22;2995;-31.998;115.906;2023-07-13T13:47:31;14.80;99.90
5940;DHT22;2995;-31.998;115.906;2023-07-13T13:50:14;14.70;99.90
5940;DHT22;2995;-31.998;115.906;2023-07-13T13:52:46;14.70;99.90
5940;DHT22;2995;-31.998;115.906;2023-07-13T13:55:18;14.70;99.90
5940;DHT22;2995;-31.998;115.906;2023-07-13T13:57:54;14.70;99.90
5940;DHT22;2995;-31.998;115.906;2023-07-13T14:00:25;14.60;99.90
5940;DHT22;2995;-31.998;115.906;2023-07-13T14:02:56;14.70;99.90
5940;DHT22;2995;-31.998;115.906;2023-07-13T14:05:27;14.70;99.90
5940;DHT22;2995;-31.998;115.906;2023-07-13T14:07:59;14.80;99.90
5940;DHT22;2995;-31.998;115.906;2023-07-13T14:10:30;14.80;99.90
5940;DHT22;2995;-31.998;115.906;2023-07-13T14:13:03;14.90;99.90
5940;DHT22;2995;-31.998;115.906;2023-07-13T14:15:36;14.80;99.90
5940;DHT22;2995;-31.998;115.906;2023-07-13T14:18:10;14.70;99.90
5940;DHT22;2995;-31.998;115.906;2023-07-13T14:20:45;14.80;99.90
5940;DHT22;2995;-31.998;115.906;2023-07-13T14:23:17;14.80;99.90
5940;DHT22;2995;-31.998;115.906;2023-07-13T14:25:49;14.80;99.90
5940;DHT22;2995;-31.998;115.906;2023-07-13T14:28:26;14.60;99.90
5940;DHT22;2995;-31.998;115.906;2023-07-13T14:30:57;14.50;99.90
5940;DHT22;2995;-31.998;115.906;2023-07-13T14:33:29;14.60;99.90
5940;DHT22;2995;-31.998;115.906;2023-07-13T14:36:00;14.50;99.90
5940;DHT22;2995;-31.998;115.906;2023-07-13T14:38:31;14.30;99.90
5940;DHT22;2995;-31.998;115.906;2023-07-13T14:41:03;14.30;99.90
5940;DHT22;2995;-31.998;115.906;2023-07-13T14:43:36;14.30;99.90
5940;DHT22;2995;-31.998;115.906;2023-07-13T14:46:18;14.30;99.90
5940;DHT22;2995;-31.998;115.906;2023-07-13T14:48:54;14.30;99.90
5940;DHT22;2995;-31.998;115.906;2023-07-13T14:51:30;14.20;99.90
5940;DHT22;2995;-31.998;115.906;2023-07-13T14:54:04;14.20;99.90
5940;DHT22;2995;-31.998;115.906;2023-07-13T14:56:35;14.30;99.90
5940;DHT22;2995;-31.998;115.906;2023-07-13T14:59:08;14.30;99.90
5940;DHT22;2995;-31.998;115.906;2023-07-13T15:01:40;14.30;99.90
5940;DHT22;2995;-31.998;115.906;2023-07-13T15:04:12;14.20;99.90
5940;DHT22;2995;-31.998;115.906;2023-07-13T15:06:57;14.20;99.90
5940;DHT22;2995;-31.998;115.906;2023-07-13T15:09:30;14.20;99.90
5940;DHT22;2995;-31.998;115.906;2023-07-13T15:12:01;14.20;99.90
5940;DHT22;2995;-31.998;115.906;2023-07-13T15:14:35;14.20;99.90
5940;DHT22;2995;-31.998;115.906;2023-07-13T15:17:08;14.30;99.90
5940;DHT22;2995;-31.998;115.906;2023-07-13T15:19:49;14.40;99.90
5940;DHT22;2995;-31.998;115.906;2023-07-13T15:22:20;14.40;99.90
5940;DHT22;2995;-31.998;115.906;2023-07-13T15:24:52;14.30;99.90
5940;DHT22;2995;-31.998;115.906;2023-07-13T15:27:24;14.30;99.90
5940;DHT22;2995;-31.998;115.906;2023-07-13T15:29:57;14.20;99.90
5940;DHT22;2995;-31.998;115.906;2023-07-13T15:32:28;14.10;99.90
5940;DHT22;2995;-31.998;115.906;2023-07-13T15:34:59;13.80;99.90
5940;DHT22;2995;-31.998;115.906;2023-07-13T15:37:31;13.80;99.90
5940;DHT22;2995;-31.998;115.906;2023-07-13T15:40:02;13.90;99.90
5940;DHT22;2995;-31.998;115.906;2023-07-13T15:42:35;14.00;99.90
5940;DHT22;2995;-31.998;115.906;2023-07-13T15:45:16;14.10;99.90
5940;DHT22;2995;-31.998;115.906;2023-07-13T15:47:48;14.00;99.90
5940;DHT22;2995;-31.998;115.906;2023-07-13T15:50:20;13.90;99.90
5940;DHT22;2995;-31.998;115.906;2023-07-13T15:52:54;13.90;99.90
5940;DHT22;2995;-31.998;115.906;2023-07-13T15:55:26;14.00;99.90
5940;DHT22;2995;-31.998;115.906;2023-07-13T15:57:57;14.00;99.90
5940;DHT22;2995;-31.998;115.906;2023-07-13T16:00:31;14.00;99.90
5940;DHT22;2995;-31.998;115.906;2023-07-13T16:03:02;14.10;99.90
5940;DHT22;2995;-31.998;115.906;2023-07-13T16:05:34;14.10;99.90
5940;DHT22;2995;-31.998;115.906;2023-07-13T16:08:09;14.10;99.90
5940;DHT22;2995;-31.998;115.906;2023-07-13T16:10:47;14.10;99.90
5940;DHT22;2995;-31.998;115.906;2023-07-13T16:13:20;14.10;99.90
5940;DHT22;2995;-31.998;115.906;2023-07-13T16:15:55;14.20;99.90
5940;DHT22;2995;-31.998;115.906;2023-07-13T16:18:26;14.20;99.90
5940;DHT22;2995;-31.998;115.906;2023-07-13T16:20:58;14.10;99.90
5940;DHT22;2995;-31.998;115.906;2023-07-13T16:23:32;14.10;99.90
5940;DHT22;2995;-31.998;115.906;2023-07-13T16:26:04;14.10;99.90
5940;DHT22;2995;-31.998;115.906;2023-07-13T16:28:36;14.00;99.90
5940;DHT22;2995;-31.998;115.906;2023-07-13T16:31:09;13.80;99.90
5940;DHT22;2995;-31.998;115.906;2023-07-13T16:33:41;13.70;99.90
5940;DHT22;2995;-31.998;115.906;2023-07-13T16:36:12;13.70;99.90
5940;DHT22;2995;-31.998;115.906;2023-07-13T16:38:44;13.80;99.90
5940;DHT22;2995;-31.998;115.906;2023-07-13T16:41:15;13.80;99.90
5940;DHT22;2995;-31.998;115.906;2023-07-13T16:43:46;13.90;99.90
5940;DHT22;2995;-31.998;115.906;2023-07-13T16:46:22;13.90;99.90
5940;DHT22;2995;-31.998;115.906;2023-07-13T16:48:54;13.90;99.90
5940;DHT22;2995;-31.998;115.906;2023-07-13T16:51:25;13.90;99.90
5940;DHT22;2995;-31.998;115.906;2023-07-13T16:53:56;13.90;99.90
5940;DHT22;2995;-31.998;115.906;2023-07-13T16:56:28;14.00;99.90
5940;DHT22;2995;-31.998;115.906;2023-07-13T16:59:07;14.00;99.90
5940;DHT22;2995;-31.998;115.906;2023-07-13T17:01:45;14.00;99.90
5940;DHT22;2995;-31.998;115.906;2023-07-13T17:04:17;14.00;99.90
5940;DHT22;2995;-31.998;115.906;2023-07-13T17:06:51;14.00;99.90
5940;DHT22;2995;-31.998;115.906;2023-07-13T17:09:23;14.00;99.90
5940;DHT22;2995;-31.998;115.906;2023-07-13T17:11:55;14.10;99.90
5940;DHT22;2995;-31.998;115.906;2023-07-13T17:14:26;14.10;99.90